createdAt,value
2022-08-27T00:01:02.785Z,11.90
2022-08-27T00:03:49.300Z,10.50
2022-08-27T00:06:25.976Z,10.80
2022-08-27T00:09:01.907Z,11.50
2022-08-27T00:11:37.664Z,11.90
2022-08-27T00:14:12.837Z,12.20
2022-08-27T00:16:48.911Z,12.70
2022-08-27T00:19:26.764Z,11.50
2022-08-27T00:22:11.831Z,11.90
2022-08-27T00:24:49.057Z,10.00
2022-08-27T00:27:37.763Z,10.30
2022-08-27T00:30:18.201Z,10.10
2022-08-27T00:32:55.008Z,10.90
2022-08-27T00:35:31.938Z,11.80
2022-08-27T00:38:06.051Z,11.20
2022-08-27T00:45:15.929Z,11.10
2022-08-27T00:47:54.682Z,10.80
2022-08-27T00:50:38.749Z,10.30
2022-08-27T00:53:19.212Z,10.80
2022-08-27T00:55:59.126Z,10.90
2022-08-27T00:58:35.834Z,10.70
2022-08-27T01:01:14.921Z,10.30
2022-08-27T01:09:18.477Z,10.10
2022-08-27T01:11:53.741Z,11.10
2022-08-27T01:14:25.039Z,11.00
2022-08-27T01:16:59.056Z,10.30
2022-08-27T01:19:41.246Z,11.20
2022-08-27T01:22:22.997Z,10.60
2022-08-27T01:24:55.936Z,11.10
2022-08-27T01:27:32.872Z,10.40
2022-08-27T01:30:05.230Z,11.40
2022-08-27T01:32:38.629Z,10.60
2022-08-27T01:35:13.699Z,10.30
2022-08-27T01:37:54.349Z,12.10
2022-08-27T01:40:29.865Z,12.50
2022-08-27T01:43:02.982Z,11.60
2022-08-27T01:45:41.541Z,11.60
2022-08-27T01:48:16.661Z,12.20
2022-08-27T01:50:49.382Z,11.60
2022-08-27T01:53:24.438Z,12.70
2022-08-27T01:55:57.116Z,13.30
2022-08-27T01:58:35.548Z,12.00
2022-08-27T02:01:10.229Z,11.50
2022-08-27T02:03:45.143Z,13.00
2022-08-27T02:06:26.183Z,12.20
2022-08-27T02:09:02.839Z,13.00
2022-08-27T02:11:34.263Z,12.50
2022-08-27T02:14:16.389Z,11.50
2022-08-27T02:16:53.440Z,12.20
2022-08-27T02:19:25.639Z,11.20
2022-08-27T02:22:00.778Z,12.40
2022-08-27T02:24:32.638Z,11.90
2022-08-27T02:27:07.532Z,12.10
2022-08-27T02:29:38.992Z,12.90
2022-08-27T02:32:20.780Z,12.70
2022-08-27T02:35:09.285Z,11.50
2022-08-27T02:37:49.624Z,13.50
2022-08-27T02:40:22.406Z,13.30
2022-08-27T02:42:56.173Z,10.80
2022-08-27T02:45:27.458Z,11.60
2022-08-27T02:47:58.683Z,13.50
2022-08-27T02:50:30.734Z,11.80
2022-08-27T02:53:07.342Z,13.00
2022-08-27T02:55:39.508Z,13.00
2022-08-27T03:03:22.824Z,11.50
2022-08-27T03:05:55.843Z,13.40
2022-08-27T03:08:32.498Z,10.90
2022-08-27T03:11:24.259Z,12.10
2022-08-27T03:16:31.335Z,11.40
2022-08-27T03:19:05.173Z,12.10
2022-08-27T03:21:38.218Z,11.50
2022-08-27T03:27:08.218Z,10.80
2022-08-27T03:29:48.868Z,12.20
2022-08-27T03:32:20.514Z,12.00
2022-08-27T03:34:52.119Z,11.80
2022-08-27T03:37:28.108Z,12.00
2022-08-27T03:39:59.849Z,10.80
2022-08-27T03:42:34.826Z,10.70
2022-08-27T03:45:09.234Z,10.50
2022-08-27T03:47:44.319Z,10.90
2022-08-27T03:50:16.137Z,11.70
2022-08-27T03:55:47.793Z,10.70
2022-08-27T03:58:22.915Z,10.90
2022-08-27T04:00:58.831Z,11.00
2022-08-27T04:03:37.063Z,11.50
2022-08-27T04:06:48.058Z,10.70
2022-08-27T04:09:14.793Z,11.10
2022-08-27T04:11:48.217Z,10.60
2022-08-27T04:17:21.138Z,7.90
2022-08-27T04:19:55.330Z,9.70
2022-08-27T04:22:31.274Z,10.70
2022-08-27T04:25:14.282Z,10.90
2022-08-27T04:27:49.650Z,10.60
2022-08-27T04:30:42.137Z,10.60
2022-08-27T04:33:14.791Z,9.50
2022-08-27T04:38:17.011Z,10.70
2022-08-27T04:41:10.442Z,10.80
2022-08-27T04:43:42.174Z,11.10
2022-08-27T04:46:15.350Z,10.30
2022-08-27T04:48:56.724Z,10.00
2022-08-27T04:51:29.312Z,9.50
2022-08-27T05:01:27.624Z,10.10
2022-08-27T05:04:02.715Z,9.80
2022-08-27T05:06:36.925Z,8.50
2022-08-27T05:09:10.508Z,9.70
2022-08-27T05:11:52.980Z,9.20
2022-08-27T05:14:35.017Z,9.40
2022-08-27T05:17:09.541Z,9.10
2022-08-27T05:19:46.647Z,10.00
2022-08-27T05:22:19.201Z,10.40
2022-08-27T05:24:51.800Z,9.80
2022-08-27T05:27:24.584Z,9.90
2022-08-27T05:32:28.418Z,9.70
2022-08-27T05:35:03.238Z,10.50
2022-08-27T05:37:39.308Z,10.80
2022-08-27T05:40:23.278Z,9.30
2022-08-27T05:42:59.072Z,12.10
2022-08-27T05:45:31.851Z,11.00
2022-08-27T05:48:07.761Z,10.70
2022-08-27T05:50:40.187Z,9.80
2022-08-27T05:53:17.064Z,12.20
2022-08-27T05:55:54.056Z,10.80
2022-08-27T05:58:43.327Z,12.00
2022-08-27T06:01:15.275Z,9.80
2022-08-27T06:03:47.979Z,10.50
2022-08-27T06:06:25.449Z,10.00
2022-08-27T06:08:58.916Z,10.30
2022-08-27T06:11:31.487Z,10.30
2022-08-27T06:14:04.906Z,11.30
2022-08-27T06:16:37.343Z,10.80
2022-08-27T06:19:12.860Z,10.20
2022-08-27T06:21:46.852Z,10.80
2022-08-27T06:24:36.738Z,11.00
2022-08-27T06:27:10.303Z,12.20
2022-08-27T06:29:43.057Z,10.70
2022-08-27T06:32:17.864Z,11.30
2022-08-27T06:34:51.032Z,10.50
2022-08-27T06:37:24.703Z,8.60
2022-08-27T06:39:57.070Z,8.90
2022-08-27T06:42:30.023Z,9.50
2022-08-27T06:45:02.187Z,8.00
2022-08-27T06:47:35.178Z,7.30
2022-08-27T06:50:07.218Z,6.80
2022-08-27T06:55:12.064Z,5.30
2022-08-27T06:57:43.829Z,5.50
2022-08-27T07:00:17.945Z,5.60
2022-08-27T07:02:50.996Z,5.70
2022-08-27T07:05:25.159Z,4.60
2022-08-27T07:07:58.675Z,5.30
2022-08-27T07:10:33.458Z,5.00
2022-08-27T07:13:08.170Z,5.20
2022-08-27T07:15:44.193Z,5.00
2022-08-27T07:18:16.595Z,5.60
2022-08-27T07:20:54.080Z,5.40
2022-08-27T07:23:26.567Z,4.80
2022-08-27T07:26:01.263Z,5.20
2022-08-27T07:28:36.314Z,6.10
2022-08-27T07:31:09.511Z,5.60
2022-08-27T07:33:52.953Z,5.20
2022-08-27T07:36:31.923Z,4.90
2022-08-27T07:42:32.886Z,4.60
2022-08-27T07:45:16.142Z,5.30
2022-08-27T07:50:20.235Z,5.20
2022-08-27T07:52:53.484Z,6.50
2022-08-27T07:55:26.126Z,6.60
2022-08-27T07:58:00.468Z,6.90
2022-08-27T08:00:33.491Z,6.60
2022-08-27T08:03:08.249Z,6.30
2022-08-27T08:10:35.486Z,5.30
2022-08-27T08:13:11.076Z,5.00
2022-08-27T08:15:48.368Z,4.50
2022-08-27T08:18:23.400Z,4.90
2022-08-27T08:21:03.712Z,4.90
2022-08-27T08:23:39.364Z,4.60
2022-08-27T08:26:25.527Z,4.60
2022-08-27T08:29:00.857Z,5.00
2022-08-27T08:31:34.236Z,4.30
2022-08-27T08:34:09.554Z,4.90
2022-08-27T08:36:54.724Z,4.90
2022-08-27T08:39:29.237Z,5.20
2022-08-27T08:42:07.288Z,5.00
2022-08-27T08:44:49.276Z,4.70
2022-08-27T08:47:28.501Z,5.70
2022-08-27T08:50:10.306Z,4.90
2022-08-27T08:52:53.289Z,5.50
2022-08-27T08:55:39.589Z,5.40
2022-08-27T08:58:16.820Z,6.50
2022-08-27T09:00:57.665Z,6.30
2022-08-27T09:10:46.694Z,7.20
2022-08-27T09:13:23.866Z,6.30
2022-08-27T09:15:58.721Z,7.20
2022-08-27T09:18:29.756Z,6.30
2022-08-27T09:21:09.894Z,6.80
2022-08-27T09:23:46.747Z,8.00
2022-08-27T09:26:26.646Z,6.10
2022-08-27T09:29:16.912Z,6.40
2022-08-27T09:31:50.715Z,6.30
2022-08-27T09:34:21.782Z,6.20
2022-08-27T09:36:57.830Z,6.60
2022-08-27T09:39:33.841Z,6.30
2022-08-27T09:42:05.706Z,5.90
2022-08-27T09:44:53.413Z,5.90
2022-08-27T09:47:24.966Z,5.40
2022-08-27T09:50:08.248Z,5.40
2022-08-27T09:52:51.188Z,5.40
2022-08-27T09:55:40.874Z,6.20
2022-08-27T09:58:20.608Z,5.60
2022-08-27T10:00:59.576Z,6.00
2022-08-27T10:03:33.409Z,6.10
2022-08-27T10:06:04.541Z,5.60
2022-08-27T10:08:41.713Z,5.30
2022-08-27T10:11:18.288Z,5.70
2022-08-27T10:13:56.962Z,6.00
2022-08-27T10:16:51.186Z,5.50
2022-08-27T10:19:33.403Z,5.90
2022-08-27T10:22:10.486Z,6.10
2022-08-27T10:24:50.596Z,5.60
2022-08-27T10:33:23.559Z,5.30
2022-08-27T10:36:02.186Z,6.20
2022-08-27T10:38:44.568Z,6.40
2022-08-27T10:41:19.564Z,6.20
2022-08-27T10:44:04.348Z,6.20
2022-08-27T10:46:57.866Z,6.10
2022-08-27T10:49:36.094Z,5.90
2022-08-27T10:52:19.809Z,6.10
2022-08-27T10:54:55.633Z,6.10
2022-08-27T10:57:52.000Z,5.70
2022-08-27T11:00:27.440Z,5.40
2022-08-27T11:03:04.611Z,5.70
2022-08-27T11:05:39.924Z,6.00
2022-08-27T11:08:15.644Z,5.90
2022-08-27T11:10:51.891Z,6.20
2022-08-27T11:13:31.518Z,6.80
2022-08-27T11:16:15.089Z,6.40
2022-08-27T11:18:51.200Z,5.60
2022-08-27T11:21:28.856Z,5.70
2022-08-27T11:24:10.538Z,5.60
2022-08-27T11:26:43.563Z,5.50
2022-08-27T11:29:23.383Z,5.90
2022-08-27T11:32:01.663Z,5.50
2022-08-27T11:34:41.248Z,5.70
2022-08-27T11:37:21.096Z,6.20
2022-08-27T11:40:14.451Z,6.30
2022-08-27T11:42:48.283Z,6.00
2022-08-27T11:45:22.318Z,5.90
2022-08-27T11:47:58.245Z,7.10
2022-08-27T11:50:32.289Z,6.80
2022-08-27T11:53:06.866Z,6.60
2022-08-27T11:55:39.651Z,6.00
2022-08-27T11:58:24.400Z,5.90
2022-08-27T12:00:56.102Z,5.70
2022-08-27T12:03:30.685Z,5.80
2022-08-27T12:06:20.398Z,6.20
2022-08-27T12:08:52.080Z,6.10
2022-08-27T12:11:38.310Z,5.50
2022-08-27T12:14:18.604Z,6.00
2022-08-27T12:17:02.685Z,6.30
2022-08-27T12:19:45.263Z,5.60
2022-08-27T12:22:58.502Z,5.80
2022-08-27T12:25:32.607Z,5.50
2022-08-27T12:28:06.817Z,5.40
2022-08-27T12:30:39.389Z,6.40
2022-08-27T12:33:20.591Z,6.20
2022-08-27T12:35:53.056Z,6.20
2022-08-27T12:38:29.733Z,5.70
2022-08-27T12:41:04.021Z,6.00
2022-08-27T12:43:35.228Z,5.40
2022-08-27T12:46:11.715Z,6.50
2022-08-27T12:48:45.144Z,5.40
2022-08-27T12:51:20.414Z,5.80
2022-08-27T12:53:54.389Z,6.00
2022-08-27T12:56:37.380Z,5.70
2022-08-27T12:59:23.778Z,5.90
2022-08-27T13:02:05.764Z,5.80
2022-08-27T13:04:40.230Z,5.20
2022-08-27T13:07:11.303Z,6.10
2022-08-27T13:09:42.470Z,5.80
2022-08-27T13:12:19.868Z,5.90
2022-08-27T13:14:56.818Z,5.60
2022-08-27T13:17:28.647Z,5.40
2022-08-27T13:20:02.343Z,4.90
2022-08-27T13:22:40.328Z,5.90
2022-08-27T13:25:23.487Z,5.60
2022-08-27T13:28:04.346Z,6.00
2022-08-27T13:30:36.565Z,5.80
2022-08-27T13:33:09.329Z,5.10
2022-08-27T13:35:43.922Z,5.40
2022-08-27T13:38:17.038Z,5.60
2022-08-27T13:40:59.456Z,5.70
2022-08-27T13:46:06.100Z,5.80
2022-08-27T13:48:37.191Z,6.00
2022-08-27T13:51:09.231Z,6.10
2022-08-27T13:54:03.512Z,6.10
2022-08-27T13:56:36.164Z,6.20
2022-08-27T13:59:26.068Z,5.60
2022-08-27T14:02:02.680Z,5.20
2022-08-27T14:04:41.369Z,5.30
2022-08-27T14:07:14.858Z,5.60
2022-08-27T14:09:54.665Z,5.10
2022-08-27T14:12:32.942Z,6.10
2022-08-27T14:15:20.125Z,5.60
2022-08-27T14:17:51.184Z,5.70
2022-08-27T14:20:23.041Z,5.60
2022-08-27T14:22:55.540Z,5.90
2022-08-27T14:25:26.331Z,5.70
2022-08-27T14:27:58.227Z,5.50
2022-08-27T14:30:30.304Z,5.90
2022-08-27T14:35:34.134Z,5.50
2022-08-27T14:38:09.519Z,5.70
2022-08-27T14:40:40.530Z,5.80
2022-08-27T14:43:11.905Z,5.50
2022-08-27T14:45:43.722Z,5.30
2022-08-27T14:48:18.653Z,5.70
2022-08-27T14:50:51.123Z,5.50
2022-08-27T14:53:21.707Z,5.90
2022-08-27T14:55:52.652Z,5.80
2022-08-27T14:58:23.573Z,5.70
2022-08-27T15:00:56.323Z,5.40
2022-08-27T15:03:28.396Z,5.20
2022-08-27T15:06:00.113Z,4.80
2022-08-27T15:08:32.224Z,5.60
2022-08-27T15:11:03.645Z,4.60
2022-08-27T15:13:38.995Z,5.40
2022-08-27T15:16:10.358Z,5.40
2022-08-27T15:18:41.260Z,5.30
2022-08-27T15:21:12.728Z,5.20
2022-08-27T15:23:43.955Z,5.20
2022-08-27T15:26:14.597Z,4.70
2022-08-27T15:28:45.484Z,4.90
2022-08-27T15:31:16.309Z,4.90
2022-08-27T15:33:48.092Z,4.90
2022-08-27T15:36:19.100Z,4.40
2022-08-27T15:38:51.473Z,4.60
2022-08-27T15:41:25.190Z,4.30
2022-08-27T15:44:00.531Z,4.70
2022-08-27T15:46:33.277Z,4.90
2022-08-27T15:49:15.381Z,4.40
2022-08-27T15:51:49.849Z,4.50
2022-08-27T15:54:24.560Z,4.50
2022-08-27T15:56:56.268Z,4.90
2022-08-27T15:59:28.596Z,4.70
2022-08-27T16:02:00.476Z,4.20
2022-08-27T16:04:33.565Z,4.40
2022-08-27T16:07:05.699Z,5.10
2022-08-27T16:09:37.660Z,4.50
2022-08-27T16:12:10.832Z,4.60
2022-08-27T16:15:01.639Z,4.80
2022-08-27T16:17:34.975Z,5.40
2022-08-27T16:20:09.270Z,4.40
2022-08-27T16:22:41.336Z,4.60
2022-08-27T16:25:18.604Z,4.40
2022-08-27T16:27:51.918Z,4.40
2022-08-27T16:30:24.654Z,4.50
2022-08-27T16:32:56.971Z,4.30
2022-08-27T16:35:29.678Z,4.30
2022-08-27T16:38:01.978Z,4.40
2022-08-27T16:40:33.719Z,4.50
2022-08-27T16:43:05.803Z,4.00
2022-08-27T16:45:38.830Z,4.30
2022-08-27T16:48:28.523Z,4.10
2022-08-27T16:50:59.966Z,4.20
2022-08-27T16:53:33.379Z,3.90
2022-08-27T16:56:06.724Z,3.90
2022-08-27T16:58:39.197Z,4.40
2022-08-27T17:01:12.819Z,4.20
2022-08-27T17:04:07.667Z,5.90
2022-08-27T17:06:39.672Z,6.20
2022-08-27T17:09:13.453Z,5.10
2022-08-27T17:11:47.854Z,4.50
2022-08-27T17:14:20.364Z,4.60
2022-08-27T17:16:54.099Z,4.30
2022-08-27T17:19:26.357Z,3.60
2022-08-27T17:21:57.764Z,3.90
2022-08-27T17:24:30.941Z,4.10
2022-08-27T17:29:35.424Z,3.50
2022-08-27T17:32:07.819Z,3.80
2022-08-27T17:34:40.764Z,3.60
2022-08-27T17:37:13.088Z,3.30
2022-08-27T17:39:45.814Z,3.50
2022-08-27T17:42:19.418Z,4.10
2022-08-27T17:44:51.813Z,4.20
2022-08-27T17:47:25.040Z,4.40
2022-08-27T17:49:59.133Z,4.40
2022-08-27T17:52:30.088Z,4.00
2022-08-27T17:55:02.955Z,4.00
2022-08-27T17:57:40.867Z,4.10
2022-08-27T18:00:15.960Z,4.20
2022-08-27T18:02:49.738Z,4.30
2022-08-27T18:05:26.160Z,4.50
2022-08-27T18:08:01.566Z,5.00
2022-08-27T18:10:35.150Z,3.90
2022-08-27T18:13:09.355Z,4.10
2022-08-27T18:15:43.822Z,4.80
2022-08-27T18:18:19.411Z,4.20
2022-08-27T18:20:53.063Z,4.40
2022-08-27T18:23:29.515Z,4.40
2022-08-27T18:26:04.643Z,4.60
2022-08-27T18:28:40.522Z,4.70
2022-08-27T18:31:16.219Z,4.90
2022-08-27T18:33:50.288Z,5.20
2022-08-27T18:36:25.966Z,5.10
2022-08-27T18:39:01.401Z,5.30
2022-08-27T18:46:23.949Z,5.60
2022-08-27T18:48:57.332Z,5.30
2022-08-27T18:51:35.756Z,4.90
2022-08-27T18:54:10.786Z,4.60
2022-08-27T18:56:43.314Z,5.20
2022-08-27T19:01:49.490Z,4.40
2022-08-27T19:10:46.936Z,4.70
2022-08-27T19:13:18.315Z,4.50
2022-08-27T19:15:53.796Z,4.90
2022-08-27T19:18:25.793Z,4.80
2022-08-27T19:20:56.810Z,4.80
2022-08-27T19:23:27.733Z,4.80
2022-08-27T19:25:58.809Z,5.10
2022-08-27T19:28:33.220Z,4.50
2022-08-27T19:31:04.281Z,4.90
2022-08-27T19:33:35.930Z,4.80
2022-08-27T19:36:09.617Z,4.30
2022-08-27T19:38:42.294Z,5.20
2022-08-27T19:41:13.276Z,4.70
2022-08-27T19:43:45.837Z,4.70
2022-08-27T19:46:19.126Z,4.40
2022-08-27T19:48:50.239Z,5.10
2022-08-27T19:51:21.279Z,4.70
2022-08-27T19:53:52.167Z,4.80
2022-08-27T19:56:23.072Z,4.30
2022-08-27T19:58:57.064Z,4.20
2022-08-27T20:01:31.252Z,4.70
2022-08-27T20:04:02.150Z,4.20
2022-08-27T20:06:34.139Z,4.10
2022-08-27T20:09:06.682Z,4.60
2022-08-27T20:14:06.524Z,4.30
2022-08-27T20:16:41.217Z,4.10
2022-08-27T20:19:12.429Z,4.60
2022-08-27T20:21:43.029Z,4.40
2022-08-27T20:24:14.769Z,4.20
2022-08-27T20:26:46.027Z,4.90
2022-08-27T20:29:22.439Z,4.30
2022-08-27T20:32:04.425Z,4.70
2022-08-27T20:34:35.608Z,3.80
2022-08-27T20:37:07.164Z,4.60
2022-08-27T20:39:38.237Z,3.90
2022-08-27T20:42:10.972Z,4.30
2022-08-27T20:47:12.503Z,4.60
2022-08-27T20:49:44.480Z,4.40
2022-08-27T20:52:16.101Z,5.00
2022-08-27T20:54:46.952Z,4.60
2022-08-27T20:57:17.957Z,4.50
2022-08-27T21:00:06.073Z,4.70
2022-08-27T21:02:37.848Z,4.70
2022-08-27T21:07:39.571Z,4.50
2022-08-27T21:10:11.403Z,4.70
2022-08-27T21:12:42.242Z,4.80
2022-08-27T21:15:13.613Z,3.90
2022-08-27T21:17:44.248Z,4.90
2022-08-27T21:20:15.528Z,4.60
2022-08-27T21:22:47.007Z,4.90
2022-08-27T21:25:18.146Z,4.80
2022-08-27T21:27:49.402Z,4.10
2022-08-27T21:30:22.106Z,4.20
2022-08-27T21:35:23.019Z,4.30
2022-08-27T21:37:54.680Z,5.30
2022-08-27T21:40:27.799Z,4.30
2022-08-27T21:43:01.936Z,4.10
2022-08-27T21:45:33.076Z,4.40
2022-08-27T21:48:04.378Z,4.60
2022-08-27T21:50:35.854Z,4.10
2022-08-27T21:53:06.709Z,4.90
2022-08-27T21:55:37.828Z,3.90
2022-08-27T21:58:08.806Z,4.30
2022-08-27T22:00:45.959Z,4.40
2022-08-27T22:03:18.860Z,4.40
2022-08-27T22:05:50.952Z,4.50
2022-08-27T22:08:23.491Z,4.80
2022-08-27T22:13:24.875Z,4.20
2022-08-27T22:15:55.931Z,5.10
2022-08-27T22:18:27.328Z,4.90
2022-08-27T22:23:29.957Z,4.40
2022-08-27T22:26:01.294Z,4.40
2022-08-27T22:28:32.740Z,5.20
2022-08-27T22:31:03.703Z,4.50
2022-08-27T22:33:34.580Z,4.40
2022-08-27T22:36:06.386Z,4.30
2022-08-27T22:38:37.434Z,4.60
2022-08-27T22:41:09.994Z,4.20
2022-08-27T22:43:41.427Z,5.10
2022-08-27T22:46:12.796Z,4.90
2022-08-27T22:48:44.365Z,4.60
2022-08-27T22:51:15.810Z,4.80
2022-08-27T22:53:47.073Z,4.60
2022-08-27T22:56:19.435Z,4.50
2022-08-27T22:58:50.780Z,4.40
2022-08-27T23:01:25.475Z,4.30
2022-08-27T23:03:58.252Z,4.20
2022-08-27T23:06:29.479Z,4.20
2022-08-27T23:09:00.848Z,4.10
2022-08-27T23:11:32.471Z,4.30
2022-08-27T23:14:04.068Z,4.10
2022-08-27T23:16:35.562Z,4.60
2022-08-27T23:19:07.284Z,4.40
2022-08-27T23:21:39.292Z,4.20
2022-08-27T23:24:11.204Z,4.40
2022-08-27T23:27:00.487Z,4.00
2022-08-27T23:29:32.044Z,5.00
2022-08-27T23:32:03.506Z,4.30
2022-08-27T23:34:34.676Z,4.20
2022-08-27T23:37:05.483Z,4.30
2022-08-27T23:39:36.150Z,4.20
2022-08-27T23:42:07.972Z,3.70
2022-08-27T23:44:39.353Z,4.00
2022-08-27T23:47:10.820Z,3.50
2022-08-27T23:49:44.528Z,3.90
2022-08-27T23:52:19.285Z,4.00
2022-08-27T23:54:50.273Z,4.00
2022-08-27T23:57:24.666Z,4.40
2022-08-27T23:59:55.805Z,4.20
